sensor_id;sensor_type;location;lat;lon;timestamp;P1;durP1;ratioP1;P2;durP2;ratioP2
4375;SDS011;2202;50.866;12.750;2023-04-15T00:00:35;17.47;;;11.50;;
4375;SDS011;2202;50.866;12.750;2023-04-15T00:03:02;14.60;;;11.00;;
4375;SDS011;2202;50.866;12.750;2023-04-15T00:05:31;16.77;;;11.97;;
4375;SDS011;2202;50.866;12.750;2023-04-15T00:07:58;14.97;;;11.33;;
4375;SDS011;2202;50.866;12.750;2023-04-15T00:10:25;16.53;;;12.07;;
4375;SDS011;2202;50.866;12.750;2023-04-15T00:12:52;15.47;;;10.83;;
4375;SDS011;2202;50.866;12.750;2023-04-15T00:15:19;17.23;;;13.00;;
4375;SDS011;2202;50.866;12.750;2023-04-15T00:17:48;17.63;;;12.13;;
4375;SDS011;2202;50.866;12.750;2023-04-15T00:20:16;15.47;;;11.17;;
4375;SDS011;2202;50.866;12.750;2023-04-15T00:22:44;16.47;;;11.30;;
4375;SDS011;2202;50.866;12.750;2023-04-15T00:25:11;16.00;;;12.50;;
4375;SDS011;2202;50.866;12.750;2023-04-15T00:27:39;16.37;;;11.57;;
4375;SDS011;2202;50.866;12.750;2023-04-15T00:30:06;14.27;;;11.37;;
4375;SDS011;2202;50.866;12.750;2023-04-15T00:32:33;15.20;;;10.73;;
4375;SDS011;2202;50.866;12.750;2023-04-15T00:35:00;15.30;;;11.63;;
4375;SDS011;2202;50.866;12.750;2023-04-15T00:37:28;13.13;;;9.90;;
4375;SDS011;2202;50.866;12.750;2023-04-15T00:39:56;13.27;;;9.93;;
4375;SDS011;2202;50.866;12.750;2023-04-15T00:42:23;13.00;;;9.83;;
4375;SDS011;2202;50.866;12.750;2023-04-15T00:44:51;13.50;;;9.90;;
4375;SDS011;2202;50.866;12.750;2023-04-15T00:47:18;12.27;;;8.80;;
4375;SDS011;2202;50.866;12.750;2023-04-15T00:49:46;12.33;;;9.30;;
4375;SDS011;2202;50.866;12.750;2023-04-15T00:52:14;10.23;;;8.50;;
4375;SDS011;2202;50.866;12.750;2023-04-15T00:54:40;11.60;;;8.47;;
4375;SDS011;2202;50.866;12.750;2023-04-15T00:57:09;11.67;;;8.37;;
4375;SDS011;2202;50.866;12.750;2023-04-15T00:59:36;11.03;;;9.00;;
4375;SDS011;2202;50.866;12.750;2023-04-15T01:02:03;12.63;;;9.30;;
4375;SDS011;2202;50.866;12.750;2023-04-15T01:04:31;11.33;;;7.60;;
4375;SDS011;2202;50.866;12.750;2023-04-15T01:06:58;12.67;;;9.73;;
4375;SDS011;2202;50.866;12.750;2023-04-15T01:09:25;12.87;;;9.50;;
4375;SDS011;2202;50.866;12.750;2023-04-15T01:11:52;13.63;;;8.40;;
4375;SDS011;2202;50.866;12.750;2023-04-15T01:14:20;16.07;;;10.63;;
4375;SDS011;2202;50.866;12.750;2023-04-15T01:16:47;12.80;;;9.03;;
4375;SDS011;2202;50.866;12.750;2023-04-15T01:19:15;12.17;;;8.90;;
4375;SDS011;2202;50.866;12.750;2023-04-15T01:21:42;13.97;;;8.87;;
4375;SDS011;2202;50.866;12.750;2023-04-15T01:24:10;10.97;;;9.00;;
4375;SDS011;2202;50.866;12.750;2023-04-15T01:26:40;11.20;;;8.10;;
4375;SDS011;2202;50.866;12.750;2023-04-15T01:29:07;11.40;;;8.03;;
4375;SDS011;2202;50.866;12.750;2023-04-15T01:31:34;12.27;;;9.27;;
4375;SDS011;2202;50.866;12.750;2023-04-15T01:34:01;11.73;;;8.83;;
4375;SDS011;2202;50.866;12.750;2023-04-15T01:36:28;15.20;;;11.13;;
4375;SDS011;2202;50.866;12.750;2023-04-15T01:38:55;14.40;;;9.80;;
4375;SDS011;2202;50.866;12.750;2023-04-15T01:41:24;13.00;;;9.47;;
4375;SDS011;2202;50.866;12.750;2023-04-15T01:43:53;12.27;;;8.93;;
4375;SDS011;2202;50.866;12.750;2023-04-15T01:46:21;13.33;;;10.37;;
4375;SDS011;2202;50.866;12.750;2023-04-15T01:48:47;15.37;;;10.20;;
4375;SDS011;2202;50.866;12.750;2023-04-15T01:51:14;16.60;;;11.17;;
4375;SDS011;2202;50.866;12.750;2023-04-15T01:53:42;13.17;;;8.93;;
4375;SDS011;2202;50.866;12.750;2023-04-15T01:56:08;16.47;;;11.80;;
4375;SDS011;2202;50.866;12.750;2023-04-15T01:58:35;18.10;;;12.50;;
4375;SDS011;2202;50.866;12.750;2023-04-15T02:01:04;22.80;;;14.03;;
4375;SDS011;2202;50.866;12.750;2023-04-15T02:03:31;20.40;;;14.20;;
4375;SDS011;2202;50.866;12.750;2023-04-15T02:05:58;18.27;;;14.50;;
4375;SDS011;2202;50.866;12.750;2023-04-15T02:08:24;19.40;;;13.20;;
4375;SDS011;2202;50.866;12.750;2023-04-15T02:10:51;19.17;;;13.40;;
4375;SDS011;2202;50.866;12.750;2023-04-15T02:13:18;18.20;;;12.07;;
4375;SDS011;2202;50.866;12.750;2023-04-15T02:15:46;23.47;;;14.03;;
4375;SDS011;2202;50.866;12.750;2023-04-15T02:18:15;17.30;;;12.60;;
4375;SDS011;2202;50.866;12.750;2023-04-15T02:20:42;19.47;;;13.63;;
4375;SDS011;2202;50.866;12.750;2023-04-15T02:23:09;20.13;;;13.20;;
4375;SDS011;2202;50.866;12.750;2023-04-15T02:25:36;22.17;;;14.27;;
4375;SDS011;2202;50.866;12.750;2023-04-15T02:28:04;17.87;;;13.03;;
4375;SDS011;2202;50.866;12.750;2023-04-15T02:30:31;19.30;;;12.33;;
4375;SDS011;2202;50.866;12.750;2023-04-15T02:32:58;22.10;;;14.03;;
4375;SDS011;2202;50.866;12.750;2023-04-15T02:35:27;19.97;;;13.70;;
4375;SDS011;2202;50.866;12.750;2023-04-15T02:37:54;19.90;;;13.03;;
4375;SDS011;2202;50.866;12.750;2023-04-15T02:40:21;20.57;;;13.47;;
4375;SDS011;2202;50.866;12.750;2023-04-15T02:42:47;18.47;;;12.27;;
4375;SDS011;2202;50.866;12.750;2023-04-15T02:45:15;20.90;;;13.90;;
4375;SDS011;2202;50.866;12.750;2023-04-15T02:47:43;19.77;;;13.23;;
4375;SDS011;2202;50.866;12.750;2023-04-15T02:50:11;15.67;;;11.20;;
4375;SDS011;2202;50.866;12.750;2023-04-15T02:52:40;17.60;;;12.10;;
4375;SDS011;2202;50.866;12.750;2023-04-15T02:55:08;17.17;;;11.80;;
4375;SDS011;2202;50.866;12.750;2023-04-15T02:57:36;18.23;;;11.00;;
4375;SDS011;2202;50.866;12.750;2023-04-15T03:00:03;13.40;;;10.10;;
4375;SDS011;2202;50.866;12.750;2023-04-15T03:02:33;12.33;;;10.50;;
4375;SDS011;2202;50.866;12.750;2023-04-15T03:05:00;10.50;;;8.40;;
4375;SDS011;2202;50.866;12.750;2023-04-15T03:07:28;13.53;;;9.27;;
4375;SDS011;2202;50.866;12.750;2023-04-15T03:09:56;11.93;;;8.90;;
4375;SDS011;2202;50.866;12.750;2023-04-15T03:12:23;17.53;;;10.40;;
4375;SDS011;2202;50.866;12.750;2023-04-15T03:14:50;12.57;;;8.80;;
4375;SDS011;2202;50.866;12.750;2023-04-15T03:17:17;13.40;;;10.10;;
4375;SDS011;2202;50.866;12.750;2023-04-15T03:19:43;11.67;;;8.90;;
4375;SDS011;2202;50.866;12.750;2023-04-15T03:22:10;13.90;;;9.40;;
4375;SDS011;2202;50.866;12.750;2023-04-15T03:24:37;14.37;;;10.17;;
4375;SDS011;2202;50.866;12.750;2023-04-15T03:27:05;14.70;;;10.50;;
4375;SDS011;2202;50.866;12.750;2023-04-15T03:29:33;13.63;;;10.50;;
4375;SDS011;2202;50.866;12.750;2023-04-15T03:32:00;16.13;;;10.73;;
4375;SDS011;2202;50.866;12.750;2023-04-15T03:34:27;14.13;;;9.43;;
4375;SDS011;2202;50.866;12.750;2023-04-15T03:36:54;12.90;;;8.20;;
4375;SDS011;2202;50.866;12.750;2023-04-15T03:39:21;14.43;;;10.33;;
4375;SDS011;2202;50.866;12.750;2023-04-15T03:41:48;13.40;;;9.40;;
4375;SDS011;2202;50.866;12.750;2023-04-15T03:44:16;15.97;;;11.63;;
4375;SDS011;2202;50.866;12.750;2023-04-15T03:46:43;14.13;;;9.97;;
4375;SDS011;2202;50.866;12.750;2023-04-15T03:49:10;13.80;;;10.63;;
4375;SDS011;2202;50.866;12.750;2023-04-15T03:51:39;15.57;;;9.93;;
4375;SDS011;2202;50.866;12.750;2023-04-15T03:54:05;13.90;;;9.30;;
4375;SDS011;2202;50.866;12.750;2023-04-15T03:56:32;13.13;;;8.93;;
4375;SDS011;2202;50.866;12.750;2023-04-15T03:58:59;18.47;;;12.27;;
4375;SDS011;2202;50.866;12.750;2023-04-15T04:01:27;17.20;;;11.90;;
4375;SDS011;2202;50.866;12.750;2023-04-15T04:03:54;12.83;;;9.70;;
4375;SDS011;2202;50.866;12.750;2023-04-15T04:06:21;15.77;;;10.63;;
4375;SDS011;2202;50.866;12.750;2023-04-15T04:08:48;14.47;;;10.50;;
4375;SDS011;2202;50.866;12.750;2023-04-15T04:11:15;16.37;;;10.60;;
4375;SDS011;2202;50.866;12.750;2023-04-15T04:13:42;15.33;;;10.33;;
4375;SDS011;2202;50.866;12.750;2023-04-15T04:16:09;22.70;;;13.40;;
4375;SDS011;2202;50.866;12.750;2023-04-15T04:18:37;16.27;;;12.97;;
4375;SDS011;2202;50.866;12.750;2023-04-15T04:21:04;20.70;;;14.27;;
4375;SDS011;2202;50.866;12.750;2023-04-15T04:23:31;24.77;;;16.37;;
4375;SDS011;2202;50.866;12.750;2023-04-15T04:25:58;26.03;;;16.20;;
4375;SDS011;2202;50.866;12.750;2023-04-15T04:28:25;22.23;;;14.50;;
4375;SDS011;2202;50.866;12.750;2023-04-15T04:33:32;31.63;;;13.67;;
4375;SDS011;2202;50.866;12.750;2023-04-15T04:36:00;22.67;;;14.53;;
4375;SDS011;2202;50.866;12.750;2023-04-15T04:38:27;22.33;;;13.50;;
4375;SDS011;2202;50.866;12.750;2023-04-15T04:40:54;34.50;;;16.60;;
4375;SDS011;2202;50.866;12.750;2023-04-15T04:43:20;22.47;;;14.47;;
4375;SDS011;2202;50.866;12.750;2023-04-15T04:45:47;19.67;;;13.20;;
4375;SDS011;2202;50.866;12.750;2023-04-15T04:48:14;22.03;;;15.10;;
4375;SDS011;2202;50.866;12.750;2023-04-15T04:50:41;21.20;;;14.43;;
4375;SDS011;2202;50.866;12.750;2023-04-15T04:53:10;22.73;;;14.30;;
4375;SDS011;2202;50.866;12.750;2023-04-15T04:55:37;27.17;;;15.03;;
4375;SDS011;2202;50.866;12.750;2023-04-15T04:58:03;61.03;;;16.70;;
4375;SDS011;2202;50.866;12.750;2023-04-15T05:00:31;27.40;;;13.70;;
4375;SDS011;2202;50.866;12.750;2023-04-15T05:02:57;53.20;;;14.07;;
4375;SDS011;2202;50.866;12.750;2023-04-15T05:05:24;31.33;;;14.97;;
4375;SDS011;2202;50.866;12.750;2023-04-15T05:07:51;23.53;;;12.17;;
4375;SDS011;2202;50.866;12.750;2023-04-15T05:10:19;24.37;;;14.63;;
4375;SDS011;2202;50.866;12.750;2023-04-15T05:12:46;46.27;;;16.70;;
4375;SDS011;2202;50.866;12.750;2023-04-15T05:15:13;55.07;;;15.70;;
4375;SDS011;2202;50.866;12.750;2023-04-15T05:17:40;24.07;;;12.13;;
4375;SDS011;2202;50.866;12.750;2023-04-15T05:20:07;38.63;;;14.77;;
4375;SDS011;2202;50.866;12.750;2023-04-15T05:22:34;13.20;;;9.07;;
4375;SDS011;2202;50.866;12.750;2023-04-15T05:25:02;14.07;;;10.97;;
4375;SDS011;2202;50.866;12.750;2023-04-15T05:27:30;15.50;;;11.50;;
4375;SDS011;2202;50.866;12.750;2023-04-15T05:29:57;16.50;;;11.63;;
4375;SDS011;2202;50.866;12.750;2023-04-15T05:32:24;19.00;;;13.10;;
4375;SDS011;2202;50.866;12.750;2023-04-15T05:34:51;19.43;;;11.03;;
4375;SDS011;2202;50.866;12.750;2023-04-15T05:37:18;16.00;;;10.30;;
4375;SDS011;2202;50.866;12.750;2023-04-15T05:39:46;14.30;;;10.17;;
4375;SDS011;2202;50.866;12.750;2023-04-15T05:42:13;16.67;;;11.63;;
4375;SDS011;2202;50.866;12.750;2023-04-15T05:44:42;12.63;;;9.53;;
4375;SDS011;2202;50.866;12.750;2023-04-15T05:47:09;15.50;;;10.43;;
4375;SDS011;2202;50.866;12.750;2023-04-15T05:49:35;11.37;;;7.40;;
4375;SDS011;2202;50.866;12.750;2023-04-15T05:52:02;14.83;;;10.40;;
4375;SDS011;2202;50.866;12.750;2023-04-15T05:54:29;10.43;;;8.77;;
4375;SDS011;2202;50.866;12.750;2023-04-15T05:56:56;9.70;;;8.43;;
4375;SDS011;2202;50.866;12.750;2023-04-15T05:59:23;10.63;;;8.23;;
4375;SDS011;2202;50.866;12.750;2023-04-15T06:01:52;12.23;;;7.63;;
4375;SDS011;2202;50.866;12.750;2023-04-15T06:04:19;10.20;;;7.63;;
4375;SDS011;2202;50.866;12.750;2023-04-15T06:06:46;10.40;;;7.30;;
4375;SDS011;2202;50.866;12.750;2023-04-15T06:09:13;10.07;;;7.57;;
4375;SDS011;2202;50.866;12.750;2023-04-15T06:11:40;9.23;;;6.37;;
4375;SDS011;2202;50.866;12.750;2023-04-15T06:14:07;10.50;;;8.70;;
4375;SDS011;2202;50.866;12.750;2023-04-15T06:16:34;10.90;;;7.33;;
4375;SDS011;2202;50.866;12.750;2023-04-15T06:19:02;11.17;;;8.00;;
4375;SDS011;2202;50.866;12.750;2023-04-15T06:21:29;10.60;;;8.27;;
4375;SDS011;2202;50.866;12.750;2023-04-15T06:23:57;12.10;;;7.60;;
4375;SDS011;2202;50.866;12.750;2023-04-15T06:26:25;12.40;;;8.90;;
4375;SDS011;2202;50.866;12.750;2023-04-15T06:28:52;11.30;;;8.00;;
4375;SDS011;2202;50.866;12.750;2023-04-15T06:31:19;10.03;;;7.97;;
4375;SDS011;2202;50.866;12.750;2023-04-15T06:33:46;10.60;;;7.50;;
4375;SDS011;2202;50.866;12.750;2023-04-15T06:36:14;8.20;;;6.40;;
4375;SDS011;2202;50.866;12.750;2023-04-15T06:38:41;6.67;;;5.97;;
4375;SDS011;2202;50.866;12.750;2023-04-15T06:41:08;7.00;;;5.50;;
4375;SDS011;2202;50.866;12.750;2023-04-15T06:43:35;8.90;;;6.90;;
4375;SDS011;2202;50.866;12.750;2023-04-15T06:46:02;9.20;;;6.37;;
4375;SDS011;2202;50.866;12.750;2023-04-15T06:48:29;6.70;;;5.80;;
4375;SDS011;2202;50.866;12.750;2023-04-15T06:50:56;6.17;;;5.17;;
4375;SDS011;2202;50.866;12.750;2023-04-15T06:53:24;5.90;;;4.97;;
4375;SDS011;2202;50.866;12.750;2023-04-15T06:55:52;7.10;;;4.60;;
4375;SDS011;2202;50.866;12.750;2023-04-15T06:58:19;6.07;;;5.13;;
4375;SDS011;2202;50.866;12.750;2023-04-15T07:00:45;5.20;;;4.70;;
4375;SDS011;2202;50.866;12.750;2023-04-15T07:03:13;6.10;;;5.50;;
4375;SDS011;2202;50.866;12.750;2023-04-15T07:05:40;5.23;;;4.37;;
4375;SDS011;2202;50.866;12.750;2023-04-15T07:08:07;5.90;;;4.73;;
4375;SDS011;2202;50.866;12.750;2023-04-15T07:10:35;7.20;;;4.90;;
4375;SDS011;2202;50.866;12.750;2023-04-15T07:13:02;5.63;;;4.97;;
4375;SDS011;2202;50.866;12.750;2023-04-15T07:15:31;6.30;;;5.50;;
4375;SDS011;2202;50.866;12.750;2023-04-15T07:17:57;6.07;;;4.97;;
4375;SDS011;2202;50.866;12.750;2023-04-15T07:20:24;6.73;;;5.00;;
4375;SDS011;2202;50.866;12.750;2023-04-15T07:22:51;7.33;;;5.70;;
4375;SDS011;2202;50.866;12.750;2023-04-15T07:25:19;7.00;;;5.10;;
4375;SDS011;2202;50.866;12.750;2023-04-15T07:27:47;5.77;;;5.17;;
4375;SDS011;2202;50.866;12.750;2023-04-15T07:30:14;6.17;;;5.57;;
4375;SDS011;2202;50.866;12.750;2023-04-15T07:32:41;7.97;;;6.10;;
4375;SDS011;2202;50.866;12.750;2023-04-15T07:35:08;7.03;;;5.73;;
4375;SDS011;2202;50.866;12.750;2023-04-15T07:37:35;6.63;;;5.83;;
4375;SDS011;2202;50.866;12.750;2023-04-15T07:40:02;5.37;;;4.80;;
4375;SDS011;2202;50.866;12.750;2023-04-15T07:42:31;6.77;;;5.80;;
4375;SDS011;2202;50.866;12.750;2023-04-15T07:44:59;6.07;;;5.57;;
4375;SDS011;2202;50.866;12.750;2023-04-15T07:47:26;7.60;;;5.53;;
4375;SDS011;2202;50.866;12.750;2023-04-15T07:49:53;8.43;;;6.27;;
4375;SDS011;2202;50.866;12.750;2023-04-15T07:52:20;6.37;;;5.00;;
4375;SDS011;2202;50.866;12.750;2023-04-15T07:54:47;7.17;;;5.00;;
4375;SDS011;2202;50.866;12.750;2023-04-15T07:57:14;4.80;;;4.40;;
4375;SDS011;2202;50.866;12.750;2023-04-15T07:59:41;4.90;;;4.00;;
4375;SDS011;2202;50.866;12.750;2023-04-15T08:02:09;3.80;;;3.43;;
4375;SDS011;2202;50.866;12.750;2023-04-15T08:04:36;4.93;;;4.00;;
4375;SDS011;2202;50.866;12.750;2023-04-15T08:07:03;4.33;;;3.93;;
4375;SDS011;2202;50.866;12.750;2023-04-15T08:09:31;4.93;;;4.47;;
4375;SDS011;2202;50.866;12.750;2023-04-15T08:11:57;4.10;;;3.70;;
4375;SDS011;2202;50.866;12.750;2023-04-15T08:14:25;4.77;;;4.37;;
4375;SDS011;2202;50.866;12.750;2023-04-15T08:16:51;3.87;;;3.50;;
4375;SDS011;2202;50.866;12.750;2023-04-15T08:19:20;5.23;;;4.73;;
4375;SDS011;2202;50.866;12.750;2023-04-15T08:21:47;4.37;;;3.97;;
4375;SDS011;2202;50.866;12.750;2023-04-15T08:24:14;4.73;;;4.33;;
4375;SDS011;2202;50.866;12.750;2023-04-15T08:26:40;4.63;;;4.13;;
4375;SDS011;2202;50.866;12.750;2023-04-15T08:29:07;4.40;;;4.00;;
4375;SDS011;2202;50.866;12.750;2023-04-15T08:31:34;5.03;;;3.73;;
4375;SDS011;2202;50.866;12.750;2023-04-15T08:34:01;5.60;;;4.47;;
4375;SDS011;2202;50.866;12.750;2023-04-15T08:36:30;5.43;;;4.80;;
4375;SDS011;2202;50.866;12.750;2023-04-15T08:38:57;5.43;;;4.73;;
4375;SDS011;2202;50.866;12.750;2023-04-15T08:41:25;5.53;;;4.70;;
4375;SDS011;2202;50.866;12.750;2023-04-15T08:43:56;5.27;;;4.70;;
4375;SDS011;2202;50.866;12.750;2023-04-15T08:46:24;3.67;;;3.30;;
4375;SDS011;2202;50.866;12.750;2023-04-15T08:48:51;4.10;;;3.70;;
4375;SDS011;2202;50.866;12.750;2023-04-15T08:51:23;4.33;;;3.77;;
4375;SDS011;2202;50.866;12.750;2023-04-15T08:53:51;4.30;;;3.90;;
4375;SDS011;2202;50.866;12.750;2023-04-15T08:56:18;5.07;;;4.47;;
4375;SDS011;2202;50.866;12.750;2023-04-15T08:58:49;5.43;;;4.80;;
4375;SDS011;2202;50.866;12.750;2023-04-15T09:01:16;4.53;;;4.13;;
4375;SDS011;2202;50.866;12.750;2023-04-15T09:03:44;4.57;;;4.17;;
4375;SDS011;2202;50.866;12.750;2023-04-15T09:06:12;5.10;;;4.33;;
4375;SDS011;2202;50.866;12.750;2023-04-15T09:08:41;5.87;;;4.10;;
4375;SDS011;2202;50.866;12.750;2023-04-15T09:11:10;4.67;;;4.10;;
4375;SDS011;2202;50.866;12.750;2023-04-15T09:13:37;5.20;;;3.97;;
4375;SDS011;2202;50.866;12.750;2023-04-15T09:16:04;5.37;;;4.87;;
4375;SDS011;2202;50.866;12.750;2023-04-15T09:18:32;5.03;;;4.50;;
4375;SDS011;2202;50.866;12.750;2023-04-15T09:21:03;6.43;;;5.10;;
4375;SDS011;2202;50.866;12.750;2023-04-15T09:23:31;5.80;;;5.23;;
4375;SDS011;2202;50.866;12.750;2023-04-15T09:25:58;5.63;;;4.77;;
4375;SDS011;2202;50.866;12.750;2023-04-15T09:28:27;5.60;;;4.87;;
4375;SDS011;2202;50.866;12.750;2023-04-15T09:30:57;5.83;;;5.23;;
4375;SDS011;2202;50.866;12.750;2023-04-15T09:33:25;6.63;;;5.03;;
4375;SDS011;2202;50.866;12.750;2023-04-15T09:35:57;7.67;;;6.40;;
4375;SDS011;2202;50.866;12.750;2023-04-15T09:38:25;7.03;;;5.63;;
4375;SDS011;2202;50.866;12.750;2023-04-15T09:40:52;6.70;;;5.67;;
4375;SDS011;2202;50.866;12.750;2023-04-15T09:43:19;6.60;;;6.00;;
4375;SDS011;2202;50.866;12.750;2023-04-15T09:45:48;9.60;;;7.53;;
4375;SDS011;2202;50.866;12.750;2023-04-15T09:48:16;9.80;;;7.93;;
4375;SDS011;2202;50.866;12.750;2023-04-15T09:50:46;7.07;;;5.30;;
4375;SDS011;2202;50.866;12.750;2023-04-15T09:53:17;6.90;;;6.17;;
4375;SDS011;2202;50.866;12.750;2023-04-15T09:55:45;12.50;;;9.83;;
4375;SDS011;2202;50.866;12.750;2023-04-15T09:58:18;6.63;;;5.50;;
4375;SDS011;2202;50.866;12.750;2023-04-15T10:00:48;6.47;;;5.73;;
4375;SDS011;2202;50.866;12.750;2023-04-15T10:03:17;6.63;;;5.30;;
4375;SDS011;2202;50.866;12.750;2023-04-15T10:05:46;8.53;;;6.37;;
4375;SDS011;2202;50.866;12.750;2023-04-15T10:08:16;10.40;;;6.90;;
4375;SDS011;2202;50.866;12.750;2023-04-15T10:10:44;8.33;;;6.10;;
4375;SDS011;2202;50.866;12.750;2023-04-15T10:13:13;7.30;;;6.60;;
4375;SDS011;2202;50.866;12.750;2023-04-15T10:15:42;10.20;;;8.10;;
4375;SDS011;2202;50.866;12.750;2023-04-15T10:18:15;7.00;;;5.43;;
4375;SDS011;2202;50.866;12.750;2023-04-15T10:20:45;8.37;;;5.83;;
4375;SDS011;2202;50.866;12.750;2023-04-15T10:23:13;7.07;;;5.97;;
4375;SDS011;2202;50.866;12.750;2023-04-15T10:25:41;7.10;;;6.30;;
4375;SDS011;2202;50.866;12.750;2023-04-15T10:28:08;6.63;;;5.10;;
4375;SDS011;2202;50.866;12.750;2023-04-15T10:30:35;5.73;;;5.13;;
4375;SDS011;2202;50.866;12.750;2023-04-15T10:33:02;6.70;;;5.77;;
4375;SDS011;2202;50.866;12.750;2023-04-15T10:35:31;6.63;;;5.57;;
4375;SDS011;2202;50.866;12.750;2023-04-15T10:37:59;6.60;;;5.20;;
4375;SDS011;2202;50.866;12.750;2023-04-15T10:40:26;4.27;;;3.80;;
4375;SDS011;2202;50.866;12.750;2023-04-15T10:42:55;5.70;;;4.57;;
4375;SDS011;2202;50.866;12.750;2023-04-15T10:45:24;6.10;;;5.50;;
4375;SDS011;2202;50.866;12.750;2023-04-15T10:47:53;6.93;;;5.20;;
4375;SDS011;2202;50.866;12.750;2023-04-15T10:50:21;6.30;;;5.53;;
4375;SDS011;2202;50.866;12.750;2023-04-15T10:52:52;8.10;;;5.77;;
4375;SDS011;2202;50.866;12.750;2023-04-15T10:55:20;18.07;;;12.33;;
4375;SDS011;2202;50.866;12.750;2023-04-15T10:57:50;8.57;;;5.73;;
4375;SDS011;2202;50.866;12.750;2023-04-15T11:00:19;6.00;;;5.30;;
4375;SDS011;2202;50.866;12.750;2023-04-15T11:02:51;5.87;;;4.70;;
4375;SDS011;2202;50.866;12.750;2023-04-15T11:05:20;5.13;;;4.30;;
4375;SDS011;2202;50.866;12.750;2023-04-15T11:07:49;5.67;;;4.60;;
4375;SDS011;2202;50.866;12.750;2023-04-15T11:13:19;3.73;;;3.40;;
4375;SDS011;2202;50.866;12.750;2023-04-15T11:15:49;4.13;;;3.77;;
4375;SDS011;2202;50.866;12.750;2023-04-15T11:18:21;5.10;;;4.17;;
4375;SDS011;2202;50.866;12.750;2023-04-15T11:20:49;4.33;;;3.97;;
4375;SDS011;2202;50.866;12.750;2023-04-15T11:23:26;4.97;;;4.47;;
4375;SDS011;2202;50.866;12.750;2023-04-15T11:25:59;4.60;;;4.20;;
4375;SDS011;2202;50.866;12.750;2023-04-15T11:28:28;5.47;;;4.50;;
4375;SDS011;2202;50.866;12.750;2023-04-15T11:30:56;4.37;;;3.97;;
4375;SDS011;2202;50.866;12.750;2023-04-15T11:33:24;4.17;;;3.80;;
4375;SDS011;2202;50.866;12.750;2023-04-15T11:35:51;4.93;;;3.90;;
4375;SDS011;2202;50.866;12.750;2023-04-15T11:38:20;5.60;;;4.50;;
4375;SDS011;2202;50.866;12.750;2023-04-15T11:40:47;4.60;;;4.20;;
4375;SDS011;2202;50.866;12.750;2023-04-15T11:43:17;5.10;;;4.60;;
4375;SDS011;2202;50.866;12.750;2023-04-15T11:45:51;4.10;;;3.70;;
4375;SDS011;2202;50.866;12.750;2023-04-15T11:48:21;6.40;;;4.83;;
4375;SDS011;2202;50.866;12.750;2023-04-15T11:50:53;5.23;;;4.80;;
4375;SDS011;2202;50.866;12.750;2023-04-15T11:53:23;7.13;;;5.40;;
4375;SDS011;2202;50.866;12.750;2023-04-15T11:56:01;6.30;;;5.70;;
4375;SDS011;2202;50.866;12.750;2023-04-15T11:58:28;7.03;;;5.80;;
4375;SDS011;2202;50.866;12.750;2023-04-15T12:00:56;5.90;;;4.73;;
4375;SDS011;2202;50.866;12.750;2023-04-15T12:03:25;6.07;;;5.43;;
4375;SDS011;2202;50.866;12.750;2023-04-15T12:06:09;7.73;;;5.80;;
4375;SDS011;2202;50.866;12.750;2023-04-15T12:08:52;6.73;;;5.83;;
4375;SDS011;2202;50.866;12.750;2023-04-15T12:11:29;7.60;;;6.07;;
4375;SDS011;2202;50.866;12.750;2023-04-15T12:14:08;8.03;;;6.47;;
4375;SDS011;2202;50.866;12.750;2023-04-15T12:16:38;7.37;;;5.87;;
4375;SDS011;2202;50.866;12.750;2023-04-15T12:19:08;6.23;;;5.60;;
4375;SDS011;2202;50.866;12.750;2023-04-15T12:21:38;6.67;;;5.97;;
4375;SDS011;2202;50.866;12.750;2023-04-15T12:24:08;7.17;;;6.07;;
4375;SDS011;2202;50.866;12.750;2023-04-15T12:26:41;7.73;;;6.93;;
4375;SDS011;2202;50.866;12.750;2023-04-15T12:29:10;8.60;;;7.20;;
4375;SDS011;2202;50.866;12.750;2023-04-15T12:31:45;9.23;;;8.20;;
4375;SDS011;2202;50.866;12.750;2023-04-15T12:34:13;7.47;;;6.70;;
4375;SDS011;2202;50.866;12.750;2023-04-15T12:36:40;6.90;;;6.30;;
4375;SDS011;2202;50.866;12.750;2023-04-15T12:39:09;11.83;;;6.57;;
4375;SDS011;2202;50.866;12.750;2023-04-15T12:41:36;6.90;;;6.20;;
4375;SDS011;2202;50.866;12.750;2023-04-15T12:44:02;6.07;;;5.50;;
4375;SDS011;2202;50.866;12.750;2023-04-15T12:46:30;7.23;;;5.97;;
4375;SDS011;2202;50.866;12.750;2023-04-15T12:48:57;10.00;;;8.60;;
4375;SDS011;2202;50.866;12.750;2023-04-15T12:51:24;8.30;;;6.83;;
4375;SDS011;2202;50.866;12.750;2023-04-15T12:53:51;7.37;;;6.57;;
4375;SDS011;2202;50.866;12.750;2023-04-15T12:56:19;9.07;;;6.87;;
4375;SDS011;2202;50.866;12.750;2023-04-15T12:58:46;7.00;;;6.30;;
4375;SDS011;2202;50.866;12.750;2023-04-15T13:01:13;6.60;;;5.87;;
4375;SDS011;2202;50.866;12.750;2023-04-15T13:03:40;7.10;;;6.10;;
4375;SDS011;2202;50.866;12.750;2023-04-15T13:06:07;8.73;;;6.47;;
4375;SDS011;2202;50.866;12.750;2023-04-15T13:08:34;7.83;;;6.90;;
4375;SDS011;2202;50.866;12.750;2023-04-15T13:11:02;7.87;;;6.63;;
4375;SDS011;2202;50.866;12.750;2023-04-15T13:13:31;9.00;;;6.60;;
4375;SDS011;2202;50.866;12.750;2023-04-15T13:15:58;8.73;;;6.70;;
4375;SDS011;2202;50.866;12.750;2023-04-15T13:18:25;7.20;;;5.87;;
4375;SDS011;2202;50.866;12.750;2023-04-15T13:20:53;7.67;;;6.60;;
4375;SDS011;2202;50.866;12.750;2023-04-15T13:23:20;7.50;;;6.50;;
4375;SDS011;2202;50.866;12.750;2023-04-15T13:25:47;10.57;;;8.20;;
4375;SDS011;2202;50.866;12.750;2023-04-15T13:28:14;10.90;;;9.10;;
4375;SDS011;2202;50.866;12.750;2023-04-15T13:30:43;16.70;;;15.07;;
4375;SDS011;2202;50.866;12.750;2023-04-15T13:33:11;8.53;;;7.73;;
4375;SDS011;2202;50.866;12.750;2023-04-15T13:35:39;11.17;;;7.33;;
4375;SDS011;2202;50.866;12.750;2023-04-15T13:38:06;7.67;;;6.20;;
4375;SDS011;2202;50.866;12.750;2023-04-15T13:40:32;7.43;;;6.60;;
4375;SDS011;2202;50.866;12.750;2023-04-15T13:42:59;9.70;;;7.57;;
4375;SDS011;2202;50.866;12.750;2023-04-15T13:45:27;8.63;;;6.47;;
4375;SDS011;2202;50.866;12.750;2023-04-15T13:47:56;7.30;;;6.60;;
4375;SDS011;2202;50.866;12.750;2023-04-15T13:50:23;8.30;;;7.07;;
4375;SDS011;2202;50.866;12.750;2023-04-15T13:52:50;10.40;;;8.20;;
4375;SDS011;2202;50.866;12.750;2023-04-15T13:55:16;10.43;;;7.23;;
4375;SDS011;2202;50.866;12.750;2023-04-15T13:57:43;8.20;;;7.40;;
4375;SDS011;2202;50.866;12.750;2023-04-15T14:00:11;9.23;;;7.70;;
4375;SDS011;2202;50.866;12.750;2023-04-15T14:02:38;7.20;;;6.50;;
4375;SDS011;2202;50.866;12.750;2023-04-15T14:05:08;8.30;;;6.97;;
4375;SDS011;2202;50.866;12.750;2023-04-15T14:07:35;9.23;;;7.30;;
4375;SDS011;2202;50.866;12.750;2023-04-15T14:10:02;8.50;;;7.07;;
4375;SDS011;2202;50.866;12.750;2023-04-15T14:12:30;9.67;;;6.70;;
4375;SDS011;2202;50.866;12.750;2023-04-15T14:14:56;7.17;;;6.43;;
4375;SDS011;2202;50.866;12.750;2023-04-15T14:17:23;9.00;;;7.80;;
4375;SDS011;2202;50.866;12.750;2023-04-15T14:19:50;8.83;;;7.93;;
4375;SDS011;2202;50.866;12.750;2023-04-15T14:22:18;9.00;;;7.40;;
4375;SDS011;2202;50.866;12.750;2023-04-15T14:24:45;9.57;;;7.60;;
4375;SDS011;2202;50.866;12.750;2023-04-15T14:27:13;10.07;;;8.30;;
4375;SDS011;2202;50.866;12.750;2023-04-15T14:29:40;11.53;;;8.27;;
4375;SDS011;2202;50.866;12.750;2023-04-15T14:32:07;8.93;;;8.03;;
4375;SDS011;2202;50.866;12.750;2023-04-15T14:34:34;11.30;;;9.37;;
4375;SDS011;2202;50.866;12.750;2023-04-15T14:37:01;10.73;;;8.63;;
4375;SDS011;2202;50.866;12.750;2023-04-15T14:39:30;10.00;;;8.97;;
4375;SDS011;2202;50.866;12.750;2023-04-15T14:41:57;10.43;;;8.37;;
4375;SDS011;2202;50.866;12.750;2023-04-15T14:44:24;11.27;;;8.17;;
4375;SDS011;2202;50.866;12.750;2023-04-15T14:46:51;11.20;;;9.00;;
4375;SDS011;2202;50.866;12.750;2023-04-15T14:49:18;11.10;;;9.07;;
4375;SDS011;2202;50.866;12.750;2023-04-15T14:51:45;10.60;;;8.50;;
4375;SDS011;2202;50.866;12.750;2023-04-15T14:54:12;10.27;;;8.60;;
4375;SDS011;2202;50.866;12.750;2023-04-15T14:56:40;8.70;;;7.80;;
4375;SDS011;2202;50.866;12.750;2023-04-15T14:59:07;8.80;;;7.90;;